createdAt,value
2023-03-03T00:04:24.395Z,55.85
2023-03-03T00:06:52.967Z,51.78
2023-03-03T00:09:21.877Z,50.75
2023-03-03T00:11:53.633Z,55.60
2023-03-03T00:14:32.259Z,62.53
2023-03-03T00:17:05.744Z,58.80
2023-03-03T00:19:38.830Z,54.22
2023-03-03T00:22:16.075Z,58.90
2023-03-03T00:24:43.544Z,54.28
2023-03-03T00:27:37.695Z,60.08
2023-03-03T00:30:18.163Z,58.42
2023-03-03T00:32:56.097Z,57.55
2023-03-03T00:35:26.986Z,60.33
2023-03-03T00:38:11.952Z,66.07
2023-03-03T00:40:40.507Z,56.95
2023-03-03T00:43:23.843Z,62.17
2023-03-03T00:45:55.734Z,63.63
2023-03-03T00:48:26.689Z,58.53
2023-03-03T00:50:59.967Z,65.45
2023-03-03T00:53:32.032Z,55.42
2023-03-03T00:55:59.802Z,60.83
2023-03-03T00:58:28.046Z,57.72
2023-03-03T01:00:59.081Z,57.60
2023-03-03T01:03:40.003Z,55.88
2023-03-03T01:06:07.998Z,58.78
2023-03-03T01:08:35.498Z,57.40
2023-03-03T01:11:08.704Z,53.42
2023-03-03T01:13:38.545Z,54.38
2023-03-03T01:16:06.551Z,50.50
2023-03-03T01:18:34.613Z,50.92
2023-03-03T01:21:02.400Z,57.45
2023-03-03T01:23:30.066Z,49.25
2023-03-03T01:25:58.013Z,53.50
2023-03-03T01:28:25.459Z,54.40
2023-03-03T01:30:53.582Z,57.38
2023-03-03T01:33:22.752Z,51.38
2023-03-03T01:35:53.164Z,58.00
2023-03-03T01:38:21.557Z,47.60
2023-03-03T01:40:59.492Z,51.45
2023-03-03T01:43:28.788Z,49.55
2023-03-03T01:45:59.434Z,50.58
2023-03-03T01:48:39.895Z,49.80
2023-03-03T01:51:27.096Z,48.72
2023-03-03T01:53:56.946Z,52.25
2023-03-03T01:56:25.480Z,49.42
2023-03-03T01:58:53.650Z,44.38
2023-03-03T02:01:25.866Z,48.53
2023-03-03T02:03:54.238Z,47.22
2023-03-03T02:06:24.860Z,45.40
2023-03-03T02:08:56.677Z,47.97
2023-03-03T02:11:30.822Z,48.78
2023-03-03T02:14:00.622Z,49.63
2023-03-03T02:16:28.248Z,44.60
2023-03-03T02:18:55.791Z,47.15
2023-03-03T02:21:27.953Z,43.97
2023-03-03T02:24:08.689Z,49.72
2023-03-03T02:26:41.423Z,44.33
2023-03-03T02:29:11.726Z,54.13
2023-03-03T02:31:42.222Z,48.00
2023-03-03T02:34:10.721Z,44.78
2023-03-03T02:36:39.704Z,45.45
2023-03-03T02:39:10.328Z,48.90
2023-03-03T02:41:48.146Z,43.83
2023-03-03T02:44:17.543Z,43.88
2023-03-03T02:46:46.501Z,43.72
2023-03-03T02:49:15.883Z,48.33
2023-03-03T02:51:43.439Z,50.25
2023-03-03T02:54:12.037Z,47.38
2023-03-03T02:56:41.058Z,43.75
2023-03-03T02:59:09.771Z,50.75
2023-03-03T03:01:43.609Z,45.13
2023-03-03T03:04:16.207Z,44.30
2023-03-03T03:06:47.034Z,46.83
2023-03-03T03:09:17.687Z,44.13
2023-03-03T03:11:46.987Z,48.67
2023-03-03T03:14:17.021Z,50.20
2023-03-03T03:16:46.684Z,48.75
2023-03-03T03:19:15.412Z,46.60
2023-03-03T03:21:45.122Z,44.75
2023-03-03T03:24:12.974Z,42.83
2023-03-03T03:26:45.344Z,45.30
2023-03-03T03:29:13.519Z,48.65
2023-03-03T03:31:43.929Z,43.90
2023-03-03T03:36:47.044Z,47.05
2023-03-03T03:39:16.824Z,45.50
2023-03-03T03:41:48.114Z,52.58
2023-03-03T03:44:15.575Z,41.22
2023-03-03T03:46:44.148Z,54.03
2023-03-03T03:49:12.504Z,49.05
2023-03-03T03:51:44.301Z,50.53
2023-03-03T03:54:16.421Z,57.78
2023-03-03T03:56:44.703Z,52.80
2023-03-03T03:59:12.572Z,45.95
2023-03-03T04:01:40.137Z,47.35
2023-03-03T04:04:08.265Z,53.25
2023-03-03T04:06:36.077Z,48.83
2023-03-03T04:09:05.900Z,46.33
2023-03-03T04:11:34.650Z,46.80
2023-03-03T04:14:04.279Z,49.85
2023-03-03T04:16:32.630Z,46.17
2023-03-03T04:19:00.990Z,51.78
2023-03-03T04:21:29.152Z,46.88
2023-03-03T04:23:59.916Z,47.38
2023-03-03T04:26:29.526Z,54.05
2023-03-03T04:28:57.216Z,52.78
2023-03-03T04:31:26.063Z,53.63
2023-03-03T04:33:55.002Z,48.15
2023-03-03T04:36:24.239Z,52.70
2023-03-03T04:38:52.753Z,52.53
2023-03-03T04:41:23.242Z,57.83
2023-03-03T04:43:51.200Z,49.55
2023-03-03T04:46:19.289Z,55.42
2023-03-03T04:48:47.414Z,61.60
2023-03-03T04:51:16.752Z,59.90
2023-03-03T04:53:47.042Z,57.50
2023-03-03T04:56:15.019Z,58.90
2023-03-03T04:58:42.912Z,62.55
2023-03-03T05:01:13.782Z,54.88
2023-03-03T05:03:43.957Z,57.58
2023-03-03T05:06:12.148Z,62.03
2023-03-03T05:08:40.123Z,57.50
2023-03-03T05:11:07.628Z,54.08
2023-03-03T05:13:35.632Z,53.72
2023-03-03T05:16:03.355Z,58.63
2023-03-03T05:18:31.086Z,57.92
2023-03-03T05:20:58.834Z,55.90
2023-03-03T05:23:27.417Z,57.15
2023-03-03T05:25:56.460Z,55.33
2023-03-03T05:28:24.022Z,57.90
2023-03-03T05:30:52.298Z,62.67
2023-03-03T05:33:22.713Z,56.03
2023-03-03T05:38:21.239Z,57.83
2023-03-03T05:40:48.933Z,62.58
2023-03-03T05:43:16.382Z,56.38
2023-03-03T05:45:44.390Z,53.03
2023-03-03T05:48:14.375Z,56.33
2023-03-03T05:50:41.935Z,56.40
2023-03-03T05:53:09.647Z,56.40
2023-03-03T05:55:37.344Z,53.00
2023-03-03T05:58:04.974Z,57.53
2023-03-03T06:00:32.497Z,53.20
2023-03-03T06:03:00.183Z,56.60
2023-03-03T06:05:28.336Z,56.47
2023-03-03T06:07:56.307Z,59.22
2023-03-03T06:10:24.921Z,57.55
2023-03-03T06:12:56.470Z,53.15
2023-03-03T06:15:24.481Z,62.92
2023-03-03T06:17:52.809Z,67.63
2023-03-03T06:20:21.038Z,59.25
2023-03-03T06:22:49.318Z,62.05
2023-03-03T06:25:17.501Z,63.95
2023-03-03T06:27:46.197Z,59.10
2023-03-03T06:30:14.106Z,55.58
2023-03-03T06:32:41.570Z,49.28
2023-03-03T06:35:09.417Z,60.20
2023-03-03T06:37:36.912Z,48.13
2023-03-03T06:40:06.080Z,54.63
2023-03-03T06:42:35.545Z,52.83
2023-03-03T06:45:02.979Z,57.47
2023-03-03T06:47:31.803Z,49.92
2023-03-03T06:49:59.324Z,49.70
2023-03-03T06:52:27.709Z,54.83
2023-03-03T06:54:59.436Z,56.80
2023-03-03T06:57:35.029Z,56.72
2023-03-03T07:00:18.121Z,54.58
2023-03-03T07:02:45.677Z,59.10
2023-03-03T07:05:18.578Z,57.85
2023-03-03T07:07:46.279Z,55.60
2023-03-03T07:10:24.923Z,52.88
2023-03-03T07:12:53.649Z,55.08
2023-03-03T07:15:35.408Z,48.28
2023-03-03T07:18:04.851Z,50.83
2023-03-03T07:20:41.486Z,45.70
2023-03-03T07:23:21.392Z,44.97
2023-03-03T07:25:49.175Z,48.08
2023-03-03T07:28:29.321Z,46.83
2023-03-03T07:30:58.764Z,47.97
2023-03-03T07:33:28.924Z,44.08
2023-03-03T07:35:58.418Z,45.65
2023-03-03T07:38:32.355Z,43.47
2023-03-03T07:41:05.097Z,47.47
2023-03-03T07:43:35.649Z,40.15
2023-03-03T07:46:12.435Z,39.17
2023-03-03T07:48:42.033Z,38.35
2023-03-03T07:51:15.352Z,33.65
2023-03-03T07:53:47.682Z,41.08
2023-03-03T07:56:30.015Z,39.17
2023-03-03T07:58:59.603Z,37.17
2023-03-03T08:01:33.725Z,42.63
2023-03-03T08:04:01.584Z,38.80
2023-03-03T08:06:38.702Z,35.97
2023-03-03T08:09:12.404Z,37.58
2023-03-03T08:11:53.052Z,38.47
2023-03-03T08:14:26.047Z,39.72
2023-03-03T08:16:53.599Z,34.75
2023-03-03T08:19:22.308Z,38.42
2023-03-03T08:21:49.871Z,37.83
2023-03-03T08:24:17.646Z,36.85
2023-03-03T08:26:45.209Z,35.95
2023-03-03T08:29:12.993Z,38.90
2023-03-03T08:31:42.091Z,37.35
2023-03-03T08:34:09.882Z,39.65
2023-03-03T08:36:38.093Z,35.63
2023-03-03T08:39:05.993Z,34.95
2023-03-03T08:41:34.055Z,32.20
2023-03-03T08:44:01.454Z,33.03
2023-03-03T08:46:29.088Z,34.85
2023-03-03T08:48:56.595Z,34.10
2023-03-03T08:51:26.696Z,34.90
2023-03-03T08:53:54.561Z,34.43
2023-03-03T08:56:22.384Z,33.10
2023-03-03T08:59:01.651Z,31.25
2023-03-03T09:03:58.402Z,30.73
2023-03-03T09:06:26.160Z,28.90
2023-03-03T09:08:55.240Z,34.75
2023-03-03T09:11:27.720Z,34.80
2023-03-03T09:14:00.698Z,32.30
2023-03-03T09:16:42.027Z,35.78
2023-03-03T09:19:29.920Z,29.33
2023-03-03T09:22:00.475Z,27.83
2023-03-03T09:26:56.643Z,27.90
2023-03-03T09:29:26.402Z,32.45
2023-03-03T09:32:02.488Z,27.85
2023-03-03T09:34:43.185Z,30.60
2023-03-03T09:39:42.749Z,29.23
2023-03-03T09:42:19.827Z,26.17
2023-03-03T09:45:04.848Z,30.42
2023-03-03T09:47:33.620Z,32.55
2023-03-03T09:50:20.017Z,27.20
2023-03-03T09:52:58.028Z,27.95
2023-03-03T09:55:25.874Z,30.40
2023-03-03T09:58:10.059Z,24.60
2023-03-03T10:00:57.630Z,23.90
2023-03-03T10:03:34.669Z,28.88
2023-03-03T10:06:18.016Z,26.55
2023-03-03T10:08:52.497Z,25.25
2023-03-03T10:11:46.516Z,29.13
2023-03-03T10:14:39.539Z,23.77
2023-03-03T10:17:22.706Z,23.33
2023-03-03T10:19:51.482Z,28.25
2023-03-03T10:22:30.006Z,24.63
2023-03-03T10:25:05.167Z,25.13
2023-03-03T10:27:45.254Z,21.63
2023-03-03T10:30:41.263Z,26.05
2023-03-03T10:33:34.827Z,24.27
2023-03-03T10:36:07.391Z,23.23
2023-03-03T10:38:55.738Z,23.33
2023-03-03T10:41:53.659Z,24.60
2023-03-03T10:44:27.423Z,24.25
2023-03-03T10:46:58.114Z,23.60
2023-03-03T10:49:33.138Z,22.27
2023-03-03T10:52:09.890Z,26.83
2023-03-03T10:55:15.922Z,21.83
2023-03-03T10:57:46.347Z,19.17
2023-03-03T11:00:30.002Z,20.38
2023-03-03T11:03:04.224Z,18.90
2023-03-03T11:05:45.191Z,22.58
2023-03-03T11:08:25.914Z,18.67
2023-03-03T11:10:59.717Z,20.98
2023-03-03T11:13:30.897Z,17.83
2023-03-03T11:16:15.029Z,17.85
2023-03-03T11:18:42.751Z,21.17
2023-03-03T11:21:16.625Z,17.27
2023-03-03T11:23:48.045Z,23.55
2023-03-03T11:26:31.029Z,25.02
2023-03-03T11:29:16.804Z,22.80
2023-03-03T11:31:57.831Z,14.73
2023-03-03T11:35:03.646Z,17.35
2023-03-03T11:37:43.969Z,16.92
2023-03-03T11:40:19.025Z,16.90
2023-03-03T11:43:05.868Z,17.77
2023-03-03T11:45:41.366Z,16.13
2023-03-03T11:48:14.873Z,12.60
2023-03-03T11:50:42.644Z,12.55
2023-03-03T11:53:10.255Z,16.67
2023-03-03T11:55:38.623Z,13.63
2023-03-03T11:58:14.855Z,17.05
2023-03-03T12:00:48.530Z,13.77
2023-03-03T12:03:24.880Z,17.80
2023-03-03T12:06:01.519Z,12.25
2023-03-03T12:08:48.207Z,13.65
2023-03-03T12:11:25.688Z,11.77
2023-03-03T12:13:58.929Z,10.25
2023-03-03T12:16:42.422Z,13.38
2023-03-03T12:19:18.536Z,11.82
2023-03-03T12:22:04.900Z,12.77
2023-03-03T12:24:41.588Z,10.95
2023-03-03T12:27:12.827Z,12.15
2023-03-03T12:29:52.841Z,12.50
2023-03-03T12:32:31.695Z,13.32
2023-03-03T12:35:12.221Z,14.13
2023-03-03T12:40:09.583Z,14.60
2023-03-03T12:42:43.335Z,12.15
2023-03-03T12:45:23.403Z,9.45
2023-03-03T12:48:11.267Z,16.98
2023-03-03T12:50:38.789Z,15.75
2023-03-03T12:53:15.620Z,11.27
2023-03-03T12:55:53.325Z,11.20
2023-03-03T12:58:40.950Z,9.95
2023-03-03T13:01:15.887Z,12.18
2023-03-03T13:04:02.315Z,11.40
2023-03-03T13:06:31.971Z,9.95
2023-03-03T13:09:11.332Z,9.55
2023-03-03T13:11:42.293Z,9.13
2023-03-03T13:14:12.666Z,9.80
2023-03-03T13:17:00.561Z,12.82
2023-03-03T13:19:32.388Z,10.45
2023-03-03T13:22:14.959Z,10.73
2023-03-03T13:24:54.004Z,13.60
2023-03-03T13:27:24.129Z,8.15
2023-03-03T13:32:23.788Z,11.88
2023-03-03T13:35:27.543Z,14.50
2023-03-03T13:37:57.907Z,7.70
2023-03-03T13:40:27.874Z,8.68
2023-03-03T13:43:06.412Z,7.38
2023-03-03T13:45:42.795Z,10.23
2023-03-03T13:48:36.768Z,9.13
2023-03-03T13:51:16.466Z,8.52
2023-03-03T13:53:44.583Z,8.82
2023-03-03T13:56:19.920Z,8.48
2023-03-03T13:58:57.780Z,8.32
2023-03-03T14:01:34.354Z,8.30
2023-03-03T14:04:07.087Z,8.88
2023-03-03T14:06:36.640Z,5.88
2023-03-03T14:09:08.753Z,5.35
2023-03-03T14:11:39.179Z,8.45
2023-03-03T14:14:25.768Z,5.50
2023-03-03T14:16:57.559Z,6.30
2023-03-03T14:19:42.883Z,6.05
2023-03-03T14:22:17.014Z,13.50
2023-03-03T14:25:14.629Z,8.10
2023-03-03T14:27:43.255Z,5.25
2023-03-03T14:30:24.660Z,3.65
2023-03-03T14:33:02.332Z,8.10
2023-03-03T14:35:35.317Z,9.65
2023-03-03T14:38:04.506Z,9.02
2023-03-03T14:40:33.339Z,4.90
2023-03-03T14:43:02.845Z,5.78
2023-03-03T14:45:32.665Z,3.78
2023-03-03T14:48:01.527Z,5.53
2023-03-03T14:50:42.748Z,5.75
2023-03-03T14:53:19.945Z,4.63
2023-03-03T14:55:52.256Z,7.47
2023-03-03T14:58:29.193Z,5.88
2023-03-03T15:01:09.560Z,5.55
2023-03-03T15:03:38.431Z,6.03
2023-03-03T15:06:13.891Z,5.38
2023-03-03T15:08:42.566Z,7.95
2023-03-03T15:11:19.756Z,3.63
2023-03-03T15:13:47.457Z,4.78
2023-03-03T15:16:26.421Z,5.00
2023-03-03T15:19:12.138Z,4.88
2023-03-03T15:21:45.296Z,8.27
2023-03-03T15:24:23.340Z,5.57
2023-03-03T15:26:54.696Z,9.95
2023-03-03T15:29:29.282Z,7.15
2023-03-03T15:31:58.868Z,9.15
2023-03-03T15:34:37.716Z,6.60
2023-03-03T15:37:24.429Z,6.60
2023-03-03T15:39:54.995Z,8.00
2023-03-03T15:42:37.063Z,6.68
2023-03-03T15:45:09.154Z,6.80
2023-03-03T15:47:40.388Z,7.75
2023-03-03T15:50:12.359Z,6.10
2023-03-03T15:52:55.445Z,9.30
2023-03-03T15:55:45.264Z,6.22
2023-03-03T15:58:12.960Z,3.75
2023-03-03T16:00:59.531Z,4.22
2023-03-03T16:03:27.624Z,7.38
2023-03-03T16:06:04.650Z,8.65
2023-03-03T16:08:38.245Z,3.67
2023-03-03T16:11:32.605Z,5.15
2023-03-03T16:14:03.190Z,8.02
2023-03-03T16:18:59.307Z,4.15
2023-03-03T16:21:29.871Z,7.13
2023-03-03T16:26:33.937Z,4.40
2023-03-03T16:29:21.362Z,11.52
2023-03-03T16:31:56.647Z,5.03
2023-03-03T16:34:40.453Z,5.38
2023-03-03T16:37:21.215Z,8.13
2023-03-03T16:39:54.711Z,6.53
2023-03-03T16:42:24.020Z,4.10
2023-03-03T16:45:11.304Z,3.70
2023-03-03T16:47:48.549Z,4.28
2023-03-03T16:50:16.513Z,5.32
2023-03-03T16:53:03.389Z,4.43
2023-03-03T16:55:43.309Z,5.07
2023-03-03T16:58:23.883Z,6.25
2023-03-03T17:03:21.327Z,9.13
2023-03-03T17:06:02.939Z,5.53
2023-03-03T17:08:42.907Z,8.60
2023-03-03T17:11:13.698Z,5.20
2023-03-03T17:13:41.313Z,8.45
2023-03-03T17:16:12.216Z,6.43
2023-03-03T17:18:53.333Z,5.30
2023-03-03T17:21:33.655Z,5.82
2023-03-03T17:24:09.183Z,6.55
2023-03-03T17:26:48.956Z,5.88
2023-03-03T17:29:25.799Z,10.85
2023-03-03T17:31:59.693Z,4.82
2023-03-03T17:34:39.676Z,7.28
2023-03-03T17:37:07.438Z,4.70
2023-03-03T17:39:37.963Z,6.97
2023-03-03T17:42:05.517Z,6.30
2023-03-03T17:44:39.554Z,5.68
2023-03-03T17:47:12.706Z,7.15
2023-03-03T17:49:48.327Z,5.82
2023-03-03T17:52:36.616Z,6.10
2023-03-03T17:55:25.646Z,7.32
2023-03-03T17:58:12.790Z,5.53
2023-03-03T18:01:04.864Z,4.30
2023-03-03T18:03:41.691Z,5.05
2023-03-03T18:06:31.764Z,8.70
2023-03-03T18:09:14.139Z,5.78
2023-03-03T18:11:42.462Z,8.25
2023-03-03T18:14:30.068Z,8.63
2023-03-03T18:17:16.654Z,4.55
2023-03-03T18:20:02.958Z,6.18
2023-03-03T18:22:31.345Z,3.60
2023-03-03T18:25:12.545Z,5.32
2023-03-03T18:27:41.409Z,9.77
2023-03-03T18:30:09.061Z,7.43
2023-03-03T18:32:43.003Z,4.95
2023-03-03T18:35:29.041Z,10.38
2023-03-03T18:37:56.983Z,9.40
2023-03-03T18:40:31.294Z,6.97
2023-03-03T18:42:59.136Z,12.13
2023-03-03T18:45:28.354Z,9.60
2023-03-03T18:48:02.461Z,5.65
2023-03-03T18:50:45.635Z,5.95
2023-03-03T18:53:15.658Z,12.23
2023-03-03T18:55:46.886Z,4.65
2023-03-03T18:58:14.795Z,6.50
2023-03-03T19:00:45.544Z,10.15
2023-03-03T19:03:27.330Z,8.48
2023-03-03T19:05:57.940Z,8.10
2023-03-03T19:10:56.365Z,10.68
2023-03-03T19:15:55.248Z,10.18
2023-03-03T19:18:28.104Z,10.75
2023-03-03T19:21:02.895Z,10.95
2023-03-03T19:23:33.621Z,8.18
2023-03-03T19:26:19.995Z,10.70
2023-03-03T19:29:07.488Z,8.23
2023-03-03T19:31:57.979Z,11.35
2023-03-03T19:34:26.102Z,11.63
2023-03-03T19:37:02.227Z,12.38
2023-03-03T19:39:46.457Z,12.43
2023-03-03T19:42:28.745Z,16.17
2023-03-03T19:44:56.907Z,13.23
2023-03-03T19:47:31.792Z,12.07
2023-03-03T19:50:19.352Z,10.90
2023-03-03T19:52:46.946Z,12.95
2023-03-03T19:55:23.921Z,17.77
2023-03-03T19:57:54.455Z,13.98
2023-03-03T20:03:10.433Z,18.75
2023-03-03T20:06:15.637Z,23.08
2023-03-03T20:08:53.239Z,19.90
2023-03-03T20:11:48.423Z,17.15
2023-03-03T20:14:16.386Z,22.00
2023-03-03T20:16:48.428Z,22.27
2023-03-03T20:19:23.180Z,18.55
2023-03-03T20:21:58.541Z,24.33
2023-03-03T20:24:26.476Z,20.13
2023-03-03T20:27:03.376Z,25.83
2023-03-03T20:29:49.795Z,20.27
2023-03-03T20:32:36.209Z,26.75
2023-03-03T20:35:04.139Z,19.05
2023-03-03T20:37:52.334Z,27.20
2023-03-03T20:40:36.110Z,19.80
2023-03-03T20:43:16.817Z,15.27
2023-03-03T20:48:12.423Z,19.00
2023-03-03T20:50:46.287Z,22.20
2023-03-03T20:53:23.175Z,23.40
2023-03-03T20:56:03.503Z,18.48
2023-03-03T20:58:43.254Z,18.65
2023-03-03T21:01:15.052Z,14.40
2023-03-03T21:03:43.954Z,9.70
2023-03-03T21:06:19.952Z,20.77
2023-03-03T21:08:57.043Z,17.80
2023-03-03T21:11:41.424Z,20.67
2023-03-03T21:14:20.949Z,27.00
2023-03-03T21:16:51.382Z,17.67
2023-03-03T21:21:51.623Z,15.88
2023-03-03T21:24:23.026Z,21.38
2023-03-03T21:26:51.180Z,29.27
2023-03-03T21:29:35.136Z,24.85
2023-03-03T21:32:06.757Z,24.88
2023-03-03T21:34:35.237Z,25.02
2023-03-03T21:37:05.408Z,23.83
2023-03-03T21:39:34.482Z,22.55
2023-03-03T21:42:03.617Z,23.35
2023-03-03T21:44:31.267Z,18.05
2023-03-03T21:46:59.180Z,18.92
2023-03-03T21:49:27.086Z,27.80
2023-03-03T21:51:57.774Z,22.17
2023-03-03T21:54:25.935Z,24.38
2023-03-03T21:56:54.321Z,16.55
2023-03-03T21:59:24.509Z,21.58
2023-03-03T22:01:53.232Z,20.48
2023-03-03T22:04:22.020Z,14.52
2023-03-03T22:06:51.020Z,20.23
2023-03-03T22:09:18.827Z,23.63
2023-03-03T22:11:46.566Z,22.90
2023-03-03T22:14:14.234Z,24.85
2023-03-03T22:16:42.102Z,18.40
2023-03-03T22:19:10.361Z,22.27
2023-03-03T22:21:38.757Z,29.60
2023-03-03T22:24:09.430Z,19.85
2023-03-03T22:26:37.040Z,21.60
2023-03-03T22:29:06.256Z,33.50
2023-03-03T22:31:37.008Z,18.63
2023-03-03T22:34:04.907Z,15.05
2023-03-03T22:36:32.682Z,16.85
2023-03-03T22:39:03.469Z,22.58
2023-03-03T22:41:31.169Z,26.27
2023-03-03T22:43:59.141Z,21.30
2023-03-03T22:46:26.942Z,15.50
2023-03-03T22:49:03.530Z,28.23
2023-03-03T22:51:31.170Z,17.40
2023-03-03T22:53:58.961Z,23.38
2023-03-03T22:56:26.705Z,23.75
2023-03-03T22:58:55.583Z,24.98
2023-03-03T23:01:24.030Z,29.85
2023-03-03T23:03:52.669Z,18.70
2023-03-03T23:06:21.535Z,18.70
2023-03-03T23:08:49.240Z,21.38
2023-03-03T23:11:16.838Z,22.35
2023-03-03T23:13:44.592Z,24.85
2023-03-03T23:16:13.057Z,25.75
2023-03-03T23:18:40.575Z,23.80
2023-03-03T23:21:09.213Z,23.60
2023-03-03T23:23:36.761Z,28.65
2023-03-03T23:26:04.519Z,25.85
2023-03-03T23:28:32.297Z,29.30
2023-03-03T23:31:00.604Z,26.13
2023-03-03T23:33:28.396Z,25.67
2023-03-03T23:35:56.339Z,24.55
2023-03-03T23:38:23.926Z,22.23
2023-03-03T23:40:52.985Z,28.48
2023-03-03T23:43:21.822Z,23.48
2023-03-03T23:45:49.446Z,23.05
2023-03-03T23:48:17.212Z,20.50
2023-03-03T23:50:44.981Z,32.88
2023-03-03T23:53:13.039Z,26.05
2023-03-03T23:55:40.607Z,26.30
2023-03-03T23:58:08.356Z,19.98
